createdAt,value
2023-04-18T00:00:50.771Z,11.17
2023-04-18T00:03:20.700Z,13.70
2023-04-18T00:05:49.781Z,11.60
2023-04-18T00:08:17.709Z,13.33
2023-04-18T00:10:45.711Z,10.77
2023-04-18T00:13:18.271Z,11.20
2023-04-18T00:15:46.238Z,10.60
2023-04-18T00:18:16.948Z,11.93
2023-04-18T00:20:46.203Z,10.00
2023-04-18T00:23:15.026Z,12.33
2023-04-18T00:25:42.791Z,11.67
2023-04-18T00:28:10.935Z,13.17
2023-04-18T00:30:40.126Z,11.20
2023-04-18T00:33:08.955Z,10.40
2023-04-18T00:35:38.374Z,12.73
2023-04-18T00:38:06.200Z,10.00
2023-04-18T00:40:34.219Z,11.40
2023-04-18T00:43:02.308Z,11.63
2023-04-18T00:45:30.162Z,11.10
2023-04-18T00:47:59.267Z,12.13
2023-04-18T00:50:27.447Z,11.63
2023-04-18T00:52:55.650Z,12.03
2023-04-18T00:55:23.881Z,12.63
2023-04-18T00:57:51.938Z,9.97
2023-04-18T01:00:19.906Z,12.03
2023-04-18T01:02:49.937Z,16.27
2023-04-18T01:05:21.102Z,11.03
2023-04-18T01:07:48.833Z,12.30
2023-04-18T01:10:17.088Z,11.37
2023-04-18T01:12:44.939Z,9.07
2023-04-18T01:15:12.963Z,11.47
2023-04-18T01:17:41.759Z,12.30
2023-04-18T01:20:10.718Z,14.03
2023-04-18T01:22:40.137Z,13.10
2023-04-18T01:25:11.854Z,12.67
2023-04-18T01:27:39.735Z,10.87
2023-04-18T01:30:09.435Z,10.97
2023-04-18T01:32:37.246Z,12.00
2023-04-18T01:35:06.313Z,11.40
2023-04-18T01:37:35.895Z,12.57
2023-04-18T01:40:04.046Z,11.63
2023-04-18T01:42:33.292Z,10.57
2023-04-18T01:45:01.040Z,10.73
2023-04-18T01:47:28.780Z,10.73
2023-04-18T01:49:56.804Z,11.93
2023-04-18T01:52:24.687Z,12.27
2023-04-18T01:54:52.548Z,11.37
2023-04-18T01:57:20.349Z,10.13
2023-04-18T01:59:51.703Z,10.50
2023-04-18T02:02:19.712Z,11.03
2023-04-18T02:04:47.831Z,9.10
2023-04-18T02:07:15.882Z,11.20
2023-04-18T02:09:43.690Z,10.93
2023-04-18T02:12:12.635Z,9.43
2023-04-18T02:14:40.846Z,10.37
2023-04-18T02:17:10.181Z,11.77
2023-04-18T02:19:38.068Z,10.87
2023-04-18T02:22:06.079Z,11.20
2023-04-18T02:24:34.084Z,12.73
2023-04-18T02:27:02.213Z,9.17
2023-04-18T02:29:30.566Z,10.37
2023-04-18T02:31:58.559Z,9.20
2023-04-18T02:34:27.767Z,8.23
2023-04-18T02:36:55.620Z,7.60
2023-04-18T02:39:23.934Z,10.63
2023-04-18T02:41:51.843Z,9.47
2023-04-18T02:44:20.852Z,9.43
2023-04-18T02:46:48.789Z,8.50
2023-04-18T02:49:17.014Z,8.03
2023-04-18T02:51:47.857Z,7.90
2023-04-18T02:54:16.915Z,9.63
2023-04-18T02:56:56.882Z,8.97
2023-04-18T02:59:40.505Z,7.43
2023-04-18T03:02:28.526Z,8.13
2023-04-18T03:05:01.554Z,8.13
2023-04-18T03:07:31.376Z,10.10
2023-04-18T03:10:00.960Z,8.23
2023-04-18T03:12:34.454Z,7.37
2023-04-18T03:15:04.196Z,8.67
2023-04-18T03:17:32.714Z,8.77
2023-04-18T03:20:00.743Z,7.40
2023-04-18T03:22:28.517Z,7.50
2023-04-18T03:25:00.204Z,10.40
2023-04-18T03:27:42.824Z,7.67
2023-04-18T03:30:13.308Z,8.50
2023-04-18T03:32:43.287Z,11.37
2023-04-18T03:35:11.134Z,7.97
2023-04-18T03:37:39.353Z,9.97
2023-04-18T03:40:11.953Z,8.80
2023-04-18T03:42:41.641Z,8.50
2023-04-18T03:45:12.483Z,9.10
2023-04-18T03:47:41.415Z,11.03
2023-04-18T03:50:10.001Z,8.80
2023-04-18T03:52:39.183Z,8.17
2023-04-18T03:55:07.916Z,9.87
2023-04-18T03:57:37.127Z,8.40
2023-04-18T04:00:12.291Z,7.57
2023-04-18T04:02:46.140Z,10.00
2023-04-18T04:05:21.152Z,10.60
2023-04-18T04:07:50.805Z,8.27
2023-04-18T04:10:19.365Z,8.17
2023-04-18T04:12:50.211Z,8.90
2023-04-18T04:15:19.186Z,10.70
2023-04-18T04:17:52.946Z,8.13
2023-04-18T04:20:24.666Z,8.60
2023-04-18T04:22:59.985Z,9.90
2023-04-18T04:25:29.754Z,9.67
2023-04-18T04:28:03.103Z,9.10
2023-04-18T04:30:34.963Z,9.87
2023-04-18T04:33:03.342Z,9.47
2023-04-18T04:35:32.062Z,9.97
2023-04-18T04:38:01.575Z,9.43
2023-04-18T04:40:36.068Z,11.73
2023-04-18T04:43:15.306Z,9.77
2023-04-18T04:45:45.293Z,10.67
2023-04-18T04:48:13.424Z,10.13
2023-04-18T04:50:43.352Z,10.97
2023-04-18T04:53:12.752Z,9.63
2023-04-18T04:55:41.372Z,11.03
2023-04-18T04:58:09.235Z,12.40
2023-04-18T05:01:04.673Z,11.17
2023-04-18T05:03:33.072Z,11.33
2023-04-18T05:06:01.613Z,12.03
2023-04-18T05:08:29.430Z,12.73
2023-04-18T05:10:57.214Z,12.43
2023-04-18T05:13:25.246Z,12.03
2023-04-18T05:15:53.057Z,12.60
2023-04-18T05:18:22.898Z,11.07
2023-04-18T05:20:50.702Z,11.47
2023-04-18T05:23:18.508Z,15.87
2023-04-18T05:25:46.379Z,12.73
2023-04-18T05:28:16.052Z,14.73
2023-04-18T05:30:44.115Z,13.93
2023-04-18T05:33:11.973Z,14.90
2023-04-18T05:35:41.480Z,13.47
2023-04-18T05:38:09.319Z,14.37
2023-04-18T05:40:37.174Z,14.47
2023-04-18T05:43:05.404Z,12.30
2023-04-18T05:45:33.628Z,13.17
2023-04-18T05:48:01.985Z,14.53
2023-04-18T05:50:29.765Z,12.03
2023-04-18T05:52:59.448Z,14.77
2023-04-18T05:55:27.397Z,12.47
2023-04-18T05:57:55.390Z,12.20
2023-04-18T06:00:23.674Z,13.10
2023-04-18T06:02:51.863Z,13.47
2023-04-18T06:05:20.319Z,12.67
2023-04-18T06:07:49.313Z,12.67
2023-04-18T06:10:18.742Z,11.83
2023-04-18T06:12:46.541Z,13.10
2023-04-18T06:15:14.554Z,13.03
2023-04-18T06:17:42.512Z,12.97
2023-04-18T06:20:11.968Z,14.10
2023-04-18T06:22:39.962Z,13.23
2023-04-18T06:25:10.023Z,11.70
2023-04-18T06:27:39.893Z,12.10
2023-04-18T06:30:08.755Z,13.13
2023-04-18T06:32:36.912Z,13.77
2023-04-18T06:35:05.096Z,13.17
2023-04-18T06:37:33.056Z,12.97
2023-04-18T06:40:01.107Z,15.00
2023-04-18T06:42:29.179Z,13.67
2023-04-18T06:44:58.558Z,14.60
2023-04-18T06:47:26.907Z,15.77
2023-04-18T06:49:54.907Z,14.77
2023-04-18T06:52:22.775Z,14.07
2023-04-18T06:54:50.654Z,12.97
2023-04-18T06:57:18.525Z,13.53
2023-04-18T06:59:46.423Z,14.20
2023-04-18T07:02:15.951Z,13.70
2023-04-18T07:04:44.093Z,14.90
2023-04-18T07:07:12.246Z,11.33
2023-04-18T07:09:40.422Z,14.33
2023-04-18T07:12:08.470Z,12.20
2023-04-18T07:14:36.216Z,13.17
2023-04-18T07:17:05.087Z,12.80
2023-04-18T07:19:34.569Z,15.33
2023-04-18T07:22:02.353Z,12.50
2023-04-18T07:24:30.611Z,14.43
2023-04-18T07:26:58.317Z,14.83
2023-04-18T07:29:26.050Z,12.70
2023-04-18T07:31:53.982Z,16.30
2023-04-18T07:34:23.094Z,13.50
2023-04-18T07:36:52.568Z,15.80
2023-04-18T07:39:20.458Z,14.60
2023-04-18T07:41:48.270Z,12.77
2023-04-18T07:44:16.461Z,13.23
2023-04-18T07:46:44.315Z,14.90
2023-04-18T07:49:12.478Z,13.27
2023-04-18T07:51:40.487Z,15.23
2023-04-18T07:54:11.065Z,15.60
2023-04-18T07:56:38.809Z,13.00
2023-04-18T07:59:06.763Z,13.23
2023-04-18T08:01:35.120Z,11.87
2023-04-18T08:04:03.555Z,15.63
2023-04-18T08:06:31.483Z,14.37
2023-04-18T08:09:04.177Z,14.50
2023-04-18T08:11:37.165Z,14.40
2023-04-18T08:14:05.425Z,15.40
2023-04-18T08:16:34.371Z,14.47
2023-04-18T08:19:03.192Z,14.20
2023-04-18T08:21:51.603Z,15.20
2023-04-18T08:24:23.763Z,15.80
2023-04-18T08:26:53.068Z,17.10
2023-04-18T08:29:20.885Z,14.60
2023-04-18T08:31:48.851Z,14.97
2023-04-18T08:34:16.760Z,15.13
2023-04-18T08:36:44.785Z,15.73
2023-04-18T08:39:12.918Z,18.43
2023-04-18T08:41:52.357Z,20.23
2023-04-18T08:44:22.975Z,18.83
2023-04-18T08:47:01.884Z,16.40
2023-04-18T08:49:31.696Z,15.63
2023-04-18T08:52:01.103Z,14.87
2023-04-18T08:54:30.598Z,16.47
2023-04-18T08:57:06.857Z,16.40
2023-04-18T08:59:43.150Z,15.70
2023-04-18T09:02:15.802Z,16.53
2023-04-18T09:04:48.920Z,17.40
2023-04-18T09:07:18.707Z,15.47
2023-04-18T09:09:49.015Z,16.73
2023-04-18T09:12:19.827Z,18.77
2023-04-18T09:14:51.498Z,17.60
2023-04-18T09:17:33.730Z,17.30
2023-04-18T09:20:10.571Z,17.20
2023-04-18T09:22:48.928Z,17.63
2023-04-18T09:25:29.272Z,19.27
2023-04-18T09:28:01.091Z,16.63
2023-04-18T09:30:38.030Z,17.13
2023-04-18T09:33:09.657Z,15.17
2023-04-18T09:35:38.362Z,18.80
2023-04-18T09:38:07.312Z,18.27
2023-04-18T09:40:36.014Z,16.17
2023-04-18T09:43:19.071Z,16.53
2023-04-18T09:45:49.750Z,17.50
2023-04-18T09:48:17.633Z,15.97
2023-04-18T09:50:47.214Z,15.57
2023-04-18T09:53:20.820Z,18.63
2023-04-18T09:55:53.039Z,17.67
2023-04-18T09:58:24.312Z,17.63
2023-04-18T10:00:55.754Z,17.37
2023-04-18T10:03:31.306Z,17.07
2023-04-18T10:06:00.085Z,19.50
2023-04-18T10:08:29.150Z,19.93
2023-04-18T10:10:58.785Z,17.63
2023-04-18T10:13:28.801Z,16.10
2023-04-18T10:16:00.050Z,18.10
2023-04-18T10:18:28.188Z,18.73
2023-04-18T10:21:03.228Z,17.57
2023-04-18T10:23:39.304Z,17.60
2023-04-18T10:26:08.800Z,16.20
2023-04-18T10:28:55.217Z,17.97
2023-04-18T10:31:26.584Z,17.50
2023-04-18T10:36:30.002Z,18.37
2023-04-18T10:39:20.658Z,16.20
2023-04-18T10:41:51.081Z,17.77
2023-04-18T10:44:23.734Z,17.23
2023-04-18T10:47:29.253Z,16.13
2023-04-18T10:50:01.382Z,17.30
2023-04-18T10:52:30.116Z,18.43
2023-04-18T10:55:11.349Z,16.93
2023-04-18T10:57:40.920Z,16.97
2023-04-18T11:00:12.605Z,20.70
2023-04-18T11:02:41.653Z,17.27
2023-04-18T11:05:11.660Z,15.77
2023-04-18T11:07:41.147Z,16.13
2023-04-18T11:10:10.606Z,16.60
2023-04-18T11:12:41.413Z,17.13
2023-04-18T11:15:12.321Z,17.80
2023-04-18T11:17:41.226Z,15.27
2023-04-18T11:20:12.809Z,18.70
2023-04-18T11:22:49.023Z,17.20
2023-04-18T11:25:18.150Z,16.30
2023-04-18T11:27:47.938Z,19.33
2023-04-18T11:30:16.635Z,20.80
2023-04-18T11:32:45.024Z,15.77
2023-04-18T11:35:16.174Z,16.13
2023-04-18T11:37:46.937Z,16.67
2023-04-18T11:40:15.684Z,17.60
2023-04-18T11:42:43.789Z,18.80
2023-04-18T11:45:13.737Z,15.57
2023-04-18T11:47:46.457Z,16.53
2023-04-18T11:50:15.895Z,17.83
2023-04-18T11:52:43.887Z,14.60
2023-04-18T11:55:14.675Z,15.83
2023-04-18T11:57:42.939Z,16.03
2023-04-18T12:00:12.614Z,14.87
2023-04-18T12:02:43.047Z,19.00
2023-04-18T12:05:11.766Z,16.60
2023-04-18T12:07:42.932Z,18.43
2023-04-18T12:10:24.892Z,18.57
2023-04-18T12:12:54.547Z,16.60
2023-04-18T12:15:27.045Z,17.33
2023-04-18T12:17:59.402Z,18.07
2023-04-18T12:20:35.026Z,15.40
2023-04-18T12:23:04.770Z,16.03
2023-04-18T12:25:36.854Z,15.30
2023-04-18T12:28:24.469Z,18.20
2023-04-18T12:30:52.653Z,16.30
2023-04-18T12:33:20.607Z,19.17
2023-04-18T12:35:49.627Z,19.43
2023-04-18T12:38:21.826Z,19.47
2023-04-18T12:40:50.704Z,17.97
2023-04-18T12:43:20.309Z,20.40
2023-04-18T12:45:48.464Z,19.70
2023-04-18T12:48:16.569Z,19.23
2023-04-18T12:50:44.374Z,19.17
2023-04-18T12:53:12.212Z,20.60
2023-04-18T12:55:42.980Z,17.33
2023-04-18T12:58:11.581Z,17.77
2023-04-18T13:00:41.402Z,17.00
2023-04-18T13:03:48.687Z,15.87
2023-04-18T13:06:21.356Z,15.47
2023-04-18T13:08:49.041Z,17.30
2023-04-18T13:11:16.800Z,19.80
2023-04-18T13:13:45.053Z,16.43
2023-04-18T13:16:15.110Z,20.10
2023-04-18T13:18:42.988Z,17.90
2023-04-18T13:21:10.803Z,18.70
2023-04-18T13:23:38.721Z,17.37
2023-04-18T13:26:08.397Z,20.80
2023-04-18T13:28:36.120Z,18.97
2023-04-18T13:31:03.978Z,21.87
2023-04-18T13:33:33.182Z,21.77
2023-04-18T13:36:01.040Z,21.17
2023-04-18T13:38:29.073Z,19.83
2023-04-18T13:41:10.765Z,23.23
2023-04-18T13:43:39.681Z,18.03
2023-04-18T13:46:08.093Z,18.43
2023-04-18T13:48:37.576Z,17.60
2023-04-18T13:51:06.879Z,17.83
2023-04-18T13:53:34.619Z,18.50
2023-04-18T13:56:02.387Z,18.20
2023-04-18T13:58:30.655Z,17.70
2023-04-18T14:00:59.282Z,16.47
2023-04-18T14:03:27.238Z,18.27
2023-04-18T14:05:57.142Z,18.17
2023-04-18T14:08:24.915Z,17.80
2023-04-18T14:10:52.727Z,15.23
2023-04-18T14:13:20.726Z,18.17
2023-04-18T14:15:48.740Z,17.60
2023-04-18T14:18:21.381Z,20.80
2023-04-18T14:20:49.219Z,18.90
2023-04-18T14:23:18.618Z,16.93
2023-04-18T14:25:46.815Z,18.03
2023-04-18T14:28:15.827Z,16.03
2023-04-18T14:30:45.127Z,16.50
2023-04-18T14:33:12.903Z,17.67
2023-04-18T14:35:40.835Z,18.87
2023-04-18T14:38:08.662Z,16.53
2023-04-18T14:40:38.042Z,16.67
2023-04-18T14:43:05.743Z,16.43
2023-04-18T14:45:34.523Z,19.27
2023-04-18T14:48:02.453Z,16.83
2023-04-18T14:50:30.308Z,16.77
2023-04-18T14:52:58.088Z,15.70
2023-04-18T14:55:26.631Z,17.70
2023-04-18T14:57:55.906Z,18.93
2023-04-18T15:00:23.848Z,16.63
2023-04-18T15:02:52.045Z,18.40
2023-04-18T15:05:23.544Z,17.73
2023-04-18T15:07:52.036Z,17.93
2023-04-18T15:10:22.315Z,18.17
2023-04-18T15:12:51.038Z,18.53
2023-04-18T15:15:20.898Z,17.73
2023-04-18T15:17:48.853Z,16.33
2023-04-18T15:20:16.618Z,17.17
2023-04-18T15:22:44.389Z,16.07
2023-04-18T15:25:16.270Z,15.93
2023-04-18T15:27:44.095Z,16.30
2023-04-18T15:30:12.618Z,16.03
2023-04-18T15:32:42.813Z,18.50
2023-04-18T15:35:11.532Z,18.00
2023-04-18T15:37:39.845Z,15.67
2023-04-18T15:40:11.389Z,16.07
2023-04-18T15:42:40.428Z,18.37
2023-04-18T15:45:09.504Z,14.37
2023-04-18T15:47:38.751Z,16.13
2023-04-18T15:50:11.409Z,14.63
2023-04-18T15:52:40.839Z,14.00
2023-04-18T15:55:10.986Z,14.53
2023-04-18T15:57:38.725Z,17.77
2023-04-18T16:00:11.052Z,18.27
2023-04-18T16:02:39.189Z,15.70
2023-04-18T16:05:09.407Z,14.67
2023-04-18T16:07:37.422Z,16.40
2023-04-18T16:10:08.487Z,16.10
2023-04-18T16:12:36.220Z,16.70
2023-04-18T16:15:06.076Z,13.93
2023-04-18T16:17:33.803Z,13.93
2023-04-18T16:20:01.924Z,13.37
2023-04-18T16:22:31.385Z,13.17
2023-04-18T16:24:59.063Z,15.33
2023-04-18T16:27:26.834Z,17.00
2023-04-18T16:29:55.156Z,17.50
2023-04-18T16:32:23.080Z,16.70
2023-04-18T16:34:50.822Z,17.40
2023-04-18T16:37:18.596Z,15.47
2023-04-18T16:39:48.125Z,16.33
2023-04-18T16:42:16.031Z,15.17
2023-04-18T16:44:45.207Z,16.23
2023-04-18T16:47:12.974Z,15.33
2023-04-18T16:49:41.321Z,16.63
2023-04-18T16:52:09.959Z,16.00
2023-04-18T16:54:38.561Z,16.73
2023-04-18T16:57:08.488Z,14.93
2023-04-18T16:59:37.170Z,15.13
2023-04-18T17:02:08.321Z,14.93
2023-04-18T17:04:37.275Z,16.23
2023-04-18T17:07:07.080Z,16.90
2023-04-18T17:09:35.635Z,15.30
2023-04-18T17:12:03.589Z,14.40
2023-04-18T17:14:33.199Z,15.40
2023-04-18T17:17:00.831Z,14.70
2023-04-18T17:19:29.005Z,13.67
2023-04-18T17:21:56.731Z,15.20
2023-04-18T17:24:25.099Z,15.67
2023-04-18T17:26:52.815Z,14.37
2023-04-18T17:29:22.702Z,16.30
2023-04-18T17:31:52.964Z,15.27
2023-04-18T17:34:21.284Z,17.07
2023-04-18T17:36:48.924Z,18.27
2023-04-18T17:39:17.039Z,14.80
2023-04-18T17:41:46.186Z,14.43
2023-04-18T17:44:13.896Z,15.60
2023-04-18T17:46:41.611Z,14.17
2023-04-18T17:49:11.368Z,16.23
2023-04-18T17:51:39.189Z,14.90
2023-04-18T17:54:08.182Z,15.90
2023-04-18T17:56:35.994Z,15.47
2023-04-18T17:59:03.892Z,16.00
2023-04-18T18:01:32.918Z,16.00
2023-04-18T18:04:00.896Z,17.27
2023-04-18T18:06:30.400Z,13.93
2023-04-18T18:08:58.178Z,14.83
2023-04-18T18:11:27.536Z,17.20
2023-04-18T18:13:57.270Z,16.07
2023-04-18T18:16:25.786Z,15.17
2023-04-18T18:18:53.726Z,15.50
2023-04-18T18:21:21.889Z,15.50
2023-04-18T18:23:51.031Z,14.30
2023-04-18T18:26:18.788Z,14.07
2023-04-18T18:28:46.428Z,16.80
2023-04-18T18:31:14.233Z,16.47
2023-04-18T18:33:41.955Z,15.17
2023-04-18T18:36:09.664Z,16.20
2023-04-18T18:38:37.662Z,17.27
2023-04-18T18:41:07.420Z,13.40
2023-04-18T18:43:35.311Z,17.30
2023-04-18T18:46:03.135Z,16.57
2023-04-18T18:48:32.771Z,15.37
2023-04-18T18:51:00.433Z,17.17
2023-04-18T18:53:28.138Z,15.40
2023-04-18T18:55:56.139Z,16.23
2023-04-18T18:58:25.198Z,13.97
2023-04-18T19:00:53.828Z,18.00
2023-04-18T19:03:26.281Z,17.60
2023-04-18T19:05:54.212Z,16.13
2023-04-18T19:08:22.033Z,15.37
2023-04-18T19:10:50.569Z,17.97
2023-04-18T19:13:22.492Z,15.53
2023-04-18T19:15:51.779Z,17.10
2023-04-18T19:18:20.276Z,16.50
2023-04-18T19:20:48.321Z,15.93
2023-04-18T19:23:16.808Z,16.73
2023-04-18T19:25:45.115Z,15.33
2023-04-18T19:28:14.208Z,15.87
2023-04-18T19:30:42.924Z,17.17
2023-04-18T19:33:12.019Z,16.57
2023-04-18T19:35:39.766Z,18.27
2023-04-18T19:38:07.645Z,16.67
2023-04-18T19:40:35.995Z,17.40
2023-04-18T19:43:03.742Z,15.17
2023-04-18T19:45:31.799Z,18.70
2023-04-18T19:47:59.640Z,16.97
2023-04-18T19:50:29.167Z,14.43
2023-04-18T19:52:57.176Z,16.70
2023-04-18T19:55:25.466Z,16.27
2023-04-18T19:57:55.904Z,16.03
2023-04-18T20:00:23.848Z,15.67
2023-04-18T20:02:52.035Z,15.30
2023-04-18T20:05:20.789Z,15.33
2023-04-18T20:07:50.169Z,18.37
2023-04-18T20:10:21.013Z,18.73
2023-04-18T20:12:50.064Z,14.87
2023-04-18T20:15:18.362Z,15.83
2023-04-18T20:17:46.227Z,18.13
2023-04-18T20:20:14.081Z,14.93
2023-04-18T20:22:44.625Z,14.60
2023-04-18T20:25:13.877Z,15.23
2023-04-18T20:27:41.646Z,15.33
2023-04-18T20:30:10.055Z,16.90
2023-04-18T20:32:37.855Z,15.97
2023-04-18T20:35:06.438Z,14.40
2023-04-18T20:37:37.020Z,14.63
2023-04-18T20:40:07.990Z,15.00
2023-04-18T20:42:39.055Z,14.47
2023-04-18T20:45:10.831Z,15.27
2023-04-18T20:47:38.753Z,15.67
2023-04-18T20:50:08.230Z,15.50
2023-04-18T20:52:36.396Z,16.27
2023-04-18T20:55:04.373Z,17.03
2023-04-18T20:57:32.389Z,15.30
2023-04-18T21:00:01.777Z,15.77
2023-04-18T21:02:29.828Z,15.67
2023-04-18T21:04:59.727Z,15.00
2023-04-18T21:07:27.584Z,16.53
2023-04-18T21:09:55.387Z,13.63
2023-04-18T21:12:23.412Z,16.90
2023-04-18T21:14:51.523Z,14.67
2023-04-18T21:17:20.904Z,15.03
2023-04-18T21:19:49.023Z,14.30
2023-04-18T21:22:17.506Z,15.77
2023-04-18T21:24:46.977Z,15.57
2023-04-18T21:27:16.156Z,18.33
2023-04-18T21:29:43.925Z,17.50
2023-04-18T21:32:12.064Z,16.20
2023-04-18T21:34:41.370Z,15.07
2023-04-18T21:37:09.101Z,16.17
2023-04-18T21:39:38.091Z,15.53
2023-04-18T21:42:05.883Z,15.30
2023-04-18T21:44:33.938Z,15.00
2023-04-18T21:47:01.767Z,15.70
2023-04-18T21:49:29.695Z,16.67
2023-04-18T21:51:58.980Z,15.93
2023-04-18T21:54:26.905Z,16.20
2023-04-18T21:56:55.193Z,16.07
2023-04-18T21:59:23.167Z,14.83
2023-04-18T22:01:51.373Z,14.27
2023-04-18T22:04:21.190Z,14.00
2023-04-18T22:06:49.265Z,16.63
2023-04-18T22:09:19.926Z,17.20
2023-04-18T22:11:48.342Z,16.90
2023-04-18T22:14:16.483Z,15.40
2023-04-18T22:16:45.030Z,13.47
2023-04-18T22:19:14.200Z,15.63
2023-04-18T22:21:42.186Z,17.37
2023-04-18T22:24:10.490Z,15.80
2023-04-18T22:26:40.842Z,15.77
2023-04-18T22:29:09.195Z,16.20
2023-04-18T22:31:37.006Z,17.83
2023-04-18T22:34:05.626Z,14.63
2023-04-18T22:36:33.482Z,15.67
2023-04-18T22:39:01.277Z,15.07
2023-04-18T22:41:29.387Z,14.57
2023-04-18T22:43:59.132Z,14.97
2023-04-18T22:46:27.437Z,15.33
2023-04-18T22:48:55.243Z,14.67
2023-04-18T22:51:23.461Z,15.23
2023-04-18T22:53:51.264Z,18.10
2023-04-18T22:56:18.931Z,17.40
2023-04-18T22:58:46.700Z,18.30
2023-04-18T23:01:16.060Z,17.37
2023-04-18T23:03:43.973Z,16.47
2023-04-18T23:06:12.089Z,15.33
2023-04-18T23:08:39.933Z,18.27
2023-04-18T23:11:10.690Z,16.70
2023-04-18T23:13:38.624Z,16.47
2023-04-18T23:16:07.349Z,17.43
2023-04-18T23:18:37.134Z,14.33
2023-04-18T23:21:05.373Z,15.43
2023-04-18T23:23:33.767Z,17.90
2023-04-18T23:26:02.427Z,17.17
2023-04-18T23:28:30.553Z,18.80
2023-04-18T23:30:58.731Z,15.53
2023-04-18T23:33:26.673Z,17.73
2023-04-18T23:35:56.144Z,20.20
2023-04-18T23:38:24.243Z,18.73
2023-04-18T23:40:52.038Z,16.77
2023-04-18T23:43:20.464Z,16.50
2023-04-18T23:45:48.256Z,18.20
2023-04-18T23:48:15.986Z,16.93
2023-04-18T23:50:46.908Z,18.37
2023-04-18T23:53:17.270Z,16.97
2023-04-18T23:55:45.300Z,17.07
2023-04-18T23:58:13.927Z,17.37
